sensor_id;sensor_type;location;lat;lon;timestamp;P1;durP1;ratioP1;P2;durP2;ratioP2
8100;SDS011;4093;53.470;9.832;2022-10-16T00:00:11;8.03;;;6.13;;
8100;SDS011;4093;53.470;9.832;2022-10-16T00:02:39;7.70;;;6.13;;
8100;SDS011;4093;53.470;9.832;2022-10-16T00:05:07;9.80;;;6.93;;
8100;SDS011;4093;53.470;9.832;2022-10-16T00:07:35;9.77;;;5.97;;
8100;SDS011;4093;53.470;9.832;2022-10-16T00:10:03;8.20;;;5.50;;
8100;SDS011;4093;53.470;9.832;2022-10-16T00:12:31;7.43;;;5.77;;
8100;SDS011;4093;53.470;9.832;2022-10-16T00:15:00;6.10;;;5.30;;
8100;SDS011;4093;53.470;9.832;2022-10-16T00:17:29;7.73;;;5.30;;
8100;SDS011;4093;53.470;9.832;2022-10-16T00:19:57;8.97;;;5.13;;
8100;SDS011;4093;53.470;9.832;2022-10-16T00:22:25;7.70;;;5.53;;
8100;SDS011;4093;53.470;9.832;2022-10-16T00:24:53;6.57;;;4.50;;
8100;SDS011;4093;53.470;9.832;2022-10-16T00:27:21;5.97;;;5.10;;
8100;SDS011;4093;53.470;9.832;2022-10-16T00:29:49;7.30;;;4.50;;
8100;SDS011;4093;53.470;9.832;2022-10-16T00:32:19;9.70;;;4.33;;
8100;SDS011;4093;53.470;9.832;2022-10-16T00:34:47;5.33;;;3.87;;
8100;SDS011;4093;53.470;9.832;2022-10-16T00:37:14;5.17;;;4.00;;
8100;SDS011;4093;53.470;9.832;2022-10-16T00:39:42;4.50;;;3.83;;
8100;SDS011;4093;53.470;9.832;2022-10-16T00:42:11;5.60;;;3.80;;
8100;SDS011;4093;53.470;9.832;2022-10-16T00:44:47;5.33;;;3.90;;
8100;SDS011;4093;53.470;9.832;2022-10-16T00:47:21;4.73;;;3.93;;
8100;SDS011;4093;53.470;9.832;2022-10-16T00:49:53;8.63;;;3.77;;
8100;SDS011;4093;53.470;9.832;2022-10-16T00:52:25;5.97;;;3.70;;
8100;SDS011;4093;53.470;9.832;2022-10-16T00:54:54;4.40;;;3.30;;
8100;SDS011;4093;53.470;9.832;2022-10-16T00:57:23;3.53;;;3.20;;
8100;SDS011;4093;53.470;9.832;2022-10-16T00:59:52;5.87;;;3.70;;
8100;SDS011;4093;53.470;9.832;2022-10-16T01:02:22;5.90;;;3.33;;
8100;SDS011;4093;53.470;9.832;2022-10-16T01:04:51;4.00;;;2.77;;
8100;SDS011;4093;53.470;9.832;2022-10-16T01:07:24;4.23;;;3.07;;
8100;SDS011;4093;53.470;9.832;2022-10-16T01:10:04;8.30;;;3.00;;
8100;SDS011;4093;53.470;9.832;2022-10-16T01:12:38;4.83;;;3.27;;
8100;SDS011;4093;53.470;9.832;2022-10-16T01:15:15;4.77;;;2.73;;
8100;SDS011;4093;53.470;9.832;2022-10-16T01:17:51;5.17;;;3.10;;
8100;SDS011;4093;53.470;9.832;2022-10-16T01:20:26;5.67;;;3.23;;
8100;SDS011;4093;53.470;9.832;2022-10-16T01:23:01;4.87;;;3.00;;
8100;SDS011;4093;53.470;9.832;2022-10-16T01:25:37;5.43;;;2.90;;
8100;SDS011;4093;53.470;9.832;2022-10-16T01:28:18;4.93;;;2.70;;
8100;SDS011;4093;53.470;9.832;2022-10-16T01:30:49;5.47;;;2.90;;
8100;SDS011;4093;53.470;9.832;2022-10-16T01:33:20;3.87;;;3.07;;
8100;SDS011;4093;53.470;9.832;2022-10-16T01:35:52;3.73;;;3.10;;
8100;SDS011;4093;53.470;9.832;2022-10-16T01:38:23;4.77;;;2.90;;
8100;SDS011;4093;53.470;9.832;2022-10-16T01:40:58;4.47;;;2.87;;
8100;SDS011;4093;53.470;9.832;2022-10-16T01:43:31;4.97;;;2.70;;
8100;SDS011;4093;53.470;9.832;2022-10-16T01:46:03;4.03;;;2.63;;
8100;SDS011;4093;53.470;9.832;2022-10-16T01:48:33;7.10;;;2.90;;
8100;SDS011;4093;53.470;9.832;2022-10-16T01:51:03;6.57;;;2.80;;
8100;SDS011;4093;53.470;9.832;2022-10-16T01:53:34;3.00;;;2.60;;
8100;SDS011;4093;53.470;9.832;2022-10-16T01:56:03;3.73;;;2.63;;
8100;SDS011;4093;53.470;9.832;2022-10-16T01:58:36;7.93;;;3.20;;
8100;SDS011;4093;53.470;9.832;2022-10-16T02:01:08;4.20;;;2.90;;
8100;SDS011;4093;53.470;9.832;2022-10-16T02:03:40;8.80;;;2.97;;
8100;SDS011;4093;53.470;9.832;2022-10-16T02:06:12;5.00;;;2.90;;
8100;SDS011;4093;53.470;9.832;2022-10-16T02:08:40;5.20;;;2.70;;
8100;SDS011;4093;53.470;9.832;2022-10-16T02:11:10;7.47;;;2.80;;
8100;SDS011;4093;53.470;9.832;2022-10-16T02:13:41;3.33;;;2.70;;
8100;SDS011;4093;53.470;9.832;2022-10-16T02:16:12;5.13;;;2.73;;
8100;SDS011;4093;53.470;9.832;2022-10-16T02:18:41;6.37;;;2.57;;
8100;SDS011;4093;53.470;9.832;2022-10-16T02:21:12;6.17;;;2.60;;
8100;SDS011;4093;53.470;9.832;2022-10-16T02:23:45;3.40;;;2.40;;
8100;SDS011;4093;53.470;9.832;2022-10-16T02:26:19;3.63;;;2.30;;
8100;SDS011;4093;53.470;9.832;2022-10-16T02:28:57;5.23;;;2.57;;
8100;SDS011;4093;53.470;9.832;2022-10-16T02:31:32;5.20;;;2.40;;
8100;SDS011;4093;53.470;9.832;2022-10-16T02:34:03;6.40;;;3.13;;
8100;SDS011;4093;53.470;9.832;2022-10-16T02:36:33;3.20;;;2.50;;
8100;SDS011;4093;53.470;9.832;2022-10-16T02:39:03;3.20;;;2.40;;
8100;SDS011;4093;53.470;9.832;2022-10-16T02:41:32;3.43;;;2.33;;
8100;SDS011;4093;53.470;9.832;2022-10-16T02:44:01;3.77;;;2.50;;
8100;SDS011;4093;53.470;9.832;2022-10-16T02:46:29;3.33;;;2.30;;
8100;SDS011;4093;53.470;9.832;2022-10-16T02:48:57;3.13;;;2.57;;
8100;SDS011;4093;53.470;9.832;2022-10-16T02:51:25;3.17;;;2.63;;
8100;SDS011;4093;53.470;9.832;2022-10-16T02:53:53;3.80;;;2.60;;
8100;SDS011;4093;53.470;9.832;2022-10-16T02:56:21;8.27;;;2.70;;
8100;SDS011;4093;53.470;9.832;2022-10-16T02:58:48;3.67;;;2.40;;
8100;SDS011;4093;53.470;9.832;2022-10-16T03:01:17;4.67;;;2.67;;
8100;SDS011;4093;53.470;9.832;2022-10-16T03:03:45;5.07;;;2.43;;
8100;SDS011;4093;53.470;9.832;2022-10-16T03:06:13;5.50;;;2.40;;
8100;SDS011;4093;53.470;9.832;2022-10-16T03:08:41;2.73;;;2.30;;
8100;SDS011;4093;53.470;9.832;2022-10-16T03:11:09;5.60;;;2.50;;
8100;SDS011;4093;53.470;9.832;2022-10-16T03:13:36;6.20;;;3.00;;
8100;SDS011;4093;53.470;9.832;2022-10-16T03:16:04;5.27;;;2.70;;
8100;SDS011;4093;53.470;9.832;2022-10-16T03:18:33;3.43;;;2.63;;
8100;SDS011;4093;53.470;9.832;2022-10-16T03:21:01;4.53;;;2.70;;
8100;SDS011;4093;53.470;9.832;2022-10-16T03:23:29;5.10;;;2.93;;
8100;SDS011;4093;53.470;9.832;2022-10-16T03:25:57;3.67;;;2.77;;
8100;SDS011;4093;53.470;9.832;2022-10-16T03:28:25;4.63;;;2.70;;
8100;SDS011;4093;53.470;9.832;2022-10-16T03:30:53;5.63;;;2.90;;
8100;SDS011;4093;53.470;9.832;2022-10-16T03:33:20;4.77;;;2.70;;
8100;SDS011;4093;53.470;9.832;2022-10-16T03:35:53;12.97;;;2.77;;
8100;SDS011;4093;53.470;9.832;2022-10-16T03:38:21;5.87;;;2.83;;
8100;SDS011;4093;53.470;9.832;2022-10-16T03:40:49;4.63;;;2.87;;
8100;SDS011;4093;53.470;9.832;2022-10-16T03:43:17;4.00;;;2.50;;
8100;SDS011;4093;53.470;9.832;2022-10-16T03:45:45;3.53;;;2.77;;
8100;SDS011;4093;53.470;9.832;2022-10-16T03:48:12;8.20;;;2.67;;
8100;SDS011;4093;53.470;9.832;2022-10-16T03:50:40;4.93;;;2.63;;
8100;SDS011;4093;53.470;9.832;2022-10-16T03:53:09;5.60;;;2.60;;
8100;SDS011;4093;53.470;9.832;2022-10-16T03:55:37;4.17;;;2.80;;
8100;SDS011;4093;53.470;9.832;2022-10-16T03:58:05;7.23;;;2.83;;
8100;SDS011;4093;53.470;9.832;2022-10-16T04:00:33;3.30;;;2.77;;
8100;SDS011;4093;53.470;9.832;2022-10-16T04:03:01;4.53;;;2.63;;
8100;SDS011;4093;53.470;9.832;2022-10-16T04:05:29;3.53;;;2.50;;
8100;SDS011;4093;53.470;9.832;2022-10-16T04:07:57;5.63;;;2.80;;
8100;SDS011;4093;53.470;9.832;2022-10-16T04:10:26;7.20;;;2.87;;
8100;SDS011;4093;53.470;9.832;2022-10-16T04:12:54;3.30;;;2.57;;
8100;SDS011;4093;53.470;9.832;2022-10-16T04:15:22;4.03;;;2.90;;
8100;SDS011;4093;53.470;9.832;2022-10-16T04:17:50;4.77;;;2.30;;
8100;SDS011;4093;53.470;9.832;2022-10-16T04:20:19;3.43;;;2.67;;
8100;SDS011;4093;53.470;9.832;2022-10-16T04:22:47;3.43;;;2.60;;
8100;SDS011;4093;53.470;9.832;2022-10-16T04:25:14;5.30;;;2.70;;
8100;SDS011;4093;53.470;9.832;2022-10-16T04:27:44;4.40;;;2.50;;
8100;SDS011;4093;53.470;9.832;2022-10-16T04:30:12;5.40;;;3.23;;
8100;SDS011;4093;53.470;9.832;2022-10-16T04:32:39;3.17;;;2.63;;
8100;SDS011;4093;53.470;9.832;2022-10-16T04:35:08;5.47;;;3.20;;
8100;SDS011;4093;53.470;9.832;2022-10-16T04:37:36;6.67;;;3.70;;
8100;SDS011;4093;53.470;9.832;2022-10-16T04:40:04;3.90;;;3.20;;
8100;SDS011;4093;53.470;9.832;2022-10-16T04:42:32;6.57;;;3.77;;
8100;SDS011;4093;53.470;9.832;2022-10-16T04:45:01;7.73;;;3.90;;
8100;SDS011;4093;53.470;9.832;2022-10-16T04:47:29;7.67;;;3.93;;
8100;SDS011;4093;53.470;9.832;2022-10-16T04:49:57;4.43;;;3.50;;
8100;SDS011;4093;53.470;9.832;2022-10-16T04:52:28;4.77;;;3.60;;
8100;SDS011;4093;53.470;9.832;2022-10-16T04:54:57;9.97;;;3.90;;
8100;SDS011;4093;53.470;9.832;2022-10-16T04:57:28;5.00;;;3.73;;
8100;SDS011;4093;53.470;9.832;2022-10-16T04:59:56;7.07;;;3.60;;
8100;SDS011;4093;53.470;9.832;2022-10-16T05:02:26;10.43;;;4.27;;
8100;SDS011;4093;53.470;9.832;2022-10-16T05:04:54;6.57;;;4.27;;
8100;SDS011;4093;53.470;9.832;2022-10-16T05:07:21;6.93;;;3.87;;
8100;SDS011;4093;53.470;9.832;2022-10-16T05:09:50;8.20;;;4.30;;
8100;SDS011;4093;53.470;9.832;2022-10-16T05:12:17;6.33;;;4.20;;
8100;SDS011;4093;53.470;9.832;2022-10-16T05:14:45;7.13;;;4.90;;
8100;SDS011;4093;53.470;9.832;2022-10-16T05:17:13;6.53;;;4.00;;
8100;SDS011;4093;53.470;9.832;2022-10-16T05:19:42;6.10;;;3.87;;
8100;SDS011;4093;53.470;9.832;2022-10-16T05:22:10;6.57;;;3.77;;
8100;SDS011;4093;53.470;9.832;2022-10-16T05:24:38;9.10;;;3.57;;
8100;SDS011;4093;53.470;9.832;2022-10-16T05:27:06;4.87;;;3.97;;
8100;SDS011;4093;53.470;9.832;2022-10-16T05:29:34;5.77;;;4.37;;
8100;SDS011;4093;53.470;9.832;2022-10-16T05:32:01;6.13;;;4.03;;
8100;SDS011;4093;53.470;9.832;2022-10-16T05:34:29;5.97;;;4.10;;
8100;SDS011;4093;53.470;9.832;2022-10-16T05:36:58;5.03;;;3.17;;
8100;SDS011;4093;53.470;9.832;2022-10-16T05:39:26;7.07;;;3.50;;
8100;SDS011;4093;53.470;9.832;2022-10-16T05:41:54;6.30;;;3.80;;
8100;SDS011;4093;53.470;9.832;2022-10-16T05:44:21;5.27;;;3.60;;
8100;SDS011;4093;53.470;9.832;2022-10-16T05:46:49;8.40;;;4.40;;
8100;SDS011;4093;53.470;9.832;2022-10-16T05:49:17;4.43;;;3.40;;
8100;SDS011;4093;53.470;9.832;2022-10-16T05:51:45;6.83;;;3.70;;
8100;SDS011;4093;53.470;9.832;2022-10-16T05:54:14;4.57;;;3.63;;
8100;SDS011;4093;53.470;9.832;2022-10-16T05:56:42;5.77;;;3.40;;
8100;SDS011;4093;53.470;9.832;2022-10-16T05:59:10;7.90;;;3.93;;
8100;SDS011;4093;53.470;9.832;2022-10-16T06:01:37;8.10;;;3.53;;
8100;SDS011;4093;53.470;9.832;2022-10-16T06:04:05;9.90;;;3.97;;
8100;SDS011;4093;53.470;9.832;2022-10-16T06:06:33;6.93;;;3.90;;
8100;SDS011;4093;53.470;9.832;2022-10-16T06:09:02;6.20;;;3.50;;
8100;SDS011;4093;53.470;9.832;2022-10-16T06:11:32;7.27;;;3.53;;
8100;SDS011;4093;53.470;9.832;2022-10-16T06:14:01;6.90;;;3.67;;
8100;SDS011;4093;53.470;9.832;2022-10-16T06:16:33;6.37;;;4.50;;
8100;SDS011;4093;53.470;9.832;2022-10-16T06:19:02;8.07;;;4.20;;
8100;SDS011;4093;53.470;9.832;2022-10-16T06:21:32;6.23;;;4.07;;
8100;SDS011;4093;53.470;9.832;2022-10-16T06:24:00;9.23;;;4.33;;
8100;SDS011;4093;53.470;9.832;2022-10-16T06:26:29;6.13;;;4.43;;
8100;SDS011;4093;53.470;9.832;2022-10-16T06:28:59;8.83;;;4.97;;
8100;SDS011;4093;53.470;9.832;2022-10-16T06:31:27;11.40;;;5.17;;
8100;SDS011;4093;53.470;9.832;2022-10-16T06:33:57;8.67;;;4.77;;
8100;SDS011;4093;53.470;9.832;2022-10-16T06:36:25;8.17;;;4.67;;
8100;SDS011;4093;53.470;9.832;2022-10-16T06:38:54;7.63;;;4.70;;
8100;SDS011;4093;53.470;9.832;2022-10-16T06:41:22;7.07;;;5.10;;
8100;SDS011;4093;53.470;9.832;2022-10-16T06:43:50;4.77;;;4.10;;
8100;SDS011;4093;53.470;9.832;2022-10-16T06:46:20;9.83;;;4.67;;
8100;SDS011;4093;53.470;9.832;2022-10-16T06:48:50;6.70;;;4.60;;
8100;SDS011;4093;53.470;9.832;2022-10-16T06:51:18;9.07;;;5.00;;
8100;SDS011;4093;53.470;9.832;2022-10-16T06:53:47;6.13;;;4.57;;
8100;SDS011;4093;53.470;9.832;2022-10-16T06:56:32;10.30;;;5.07;;
8100;SDS011;4093;53.470;9.832;2022-10-16T06:59:00;7.93;;;4.67;;
8100;SDS011;4093;53.470;9.832;2022-10-16T07:01:30;7.33;;;4.53;;
8100;SDS011;4093;53.470;9.832;2022-10-16T07:03:59;5.97;;;5.00;;
8100;SDS011;4093;53.470;9.832;2022-10-16T07:06:30;6.23;;;4.80;;
8100;SDS011;4093;53.470;9.832;2022-10-16T07:09:00;7.60;;;4.50;;
8100;SDS011;4093;53.470;9.832;2022-10-16T07:11:30;7.37;;;4.93;;
8100;SDS011;4093;53.470;9.832;2022-10-16T07:13:58;7.03;;;4.80;;
8100;SDS011;4093;53.470;9.832;2022-10-16T07:16:26;5.57;;;4.60;;
8100;SDS011;4093;53.470;9.832;2022-10-16T07:18:57;6.47;;;4.37;;
8100;SDS011;4093;53.470;9.832;2022-10-16T07:21:27;7.60;;;4.60;;
8100;SDS011;4093;53.470;9.832;2022-10-16T07:23:57;7.93;;;4.70;;
8100;SDS011;4093;53.470;9.832;2022-10-16T07:26:28;10.03;;;4.60;;
8100;SDS011;4093;53.470;9.832;2022-10-16T07:28:57;7.53;;;4.20;;
8100;SDS011;4093;53.470;9.832;2022-10-16T07:31:25;7.80;;;4.43;;
8100;SDS011;4093;53.470;9.832;2022-10-16T07:33:54;4.77;;;3.87;;
8100;SDS011;4093;53.470;9.832;2022-10-16T07:36:23;8.00;;;4.80;;
8100;SDS011;4093;53.470;9.832;2022-10-16T07:38:51;5.57;;;3.90;;
8100;SDS011;4093;53.470;9.832;2022-10-16T07:41:25;5.28;;;3.72;;
8100;SDS011;4093;53.470;9.832;2022-10-16T07:43:54;7.63;;;4.20;;
8100;SDS011;4093;53.470;9.832;2022-10-16T07:46:23;6.35;;;3.38;;
8100;SDS011;4093;53.470;9.832;2022-10-16T07:48:51;6.47;;;4.05;;
8100;SDS011;4093;53.470;9.832;2022-10-16T07:51:20;5.15;;;3.60;;
8100;SDS011;4093;53.470;9.832;2022-10-16T07:53:50;3.78;;;3.42;;
8100;SDS011;4093;53.470;9.832;2022-10-16T07:56:19;4.93;;;3.50;;
8100;SDS011;4093;53.470;9.832;2022-10-16T07:58:47;5.32;;;3.63;;
8100;SDS011;4093;53.470;9.832;2022-10-16T08:01:16;6.22;;;3.50;;
8100;SDS011;4093;53.470;9.832;2022-10-16T08:03:46;5.93;;;3.28;;
8100;SDS011;4093;53.470;9.832;2022-10-16T08:06:15;5.80;;;3.00;;
8100;SDS011;4093;53.470;9.832;2022-10-16T08:08:48;4.68;;;2.90;;
8100;SDS011;4093;53.470;9.832;2022-10-16T08:11:18;3.55;;;2.92;;
8100;SDS011;4093;53.470;9.832;2022-10-16T08:13:45;3.60;;;3.20;;
8100;SDS011;4093;53.470;9.832;2022-10-16T08:16:13;4.22;;;2.85;;
8100;SDS011;4093;53.470;9.832;2022-10-16T08:18:41;4.80;;;2.97;;
8100;SDS011;4093;53.470;9.832;2022-10-16T08:21:11;7.05;;;2.92;;
8100;SDS011;4093;53.470;9.832;2022-10-16T08:23:46;4.80;;;2.95;;
8100;SDS011;4093;53.470;9.832;2022-10-16T08:26:24;4.95;;;3.22;;
8100;SDS011;4093;53.470;9.832;2022-10-16T08:28:53;4.50;;;3.03;;
8100;SDS011;4093;53.470;9.832;2022-10-16T08:31:21;4.90;;;3.30;;
8100;SDS011;4093;53.470;9.832;2022-10-16T08:33:50;4.88;;;3.28;;
8100;SDS011;4093;53.470;9.832;2022-10-16T08:36:18;4.72;;;3.17;;
8100;SDS011;4093;53.470;9.832;2022-10-16T08:38:47;5.93;;;2.97;;
8100;SDS011;4093;53.470;9.832;2022-10-16T08:44:30;7.30;;;3.10;;
8100;SDS011;4093;53.470;9.832;2022-10-16T08:47:22;4.93;;;2.97;;
8100;SDS011;4093;53.470;9.832;2022-10-16T08:49:55;5.18;;;2.60;;
8100;SDS011;4093;53.470;9.832;2022-10-16T08:52:28;4.63;;;2.63;;
8100;SDS011;4093;53.470;9.832;2022-10-16T08:54:59;7.03;;;2.88;;
8100;SDS011;4093;53.470;9.832;2022-10-16T08:57:27;3.78;;;2.80;;
8100;SDS011;4093;53.470;9.832;2022-10-16T08:59:59;5.00;;;2.90;;
8100;SDS011;4093;53.470;9.832;2022-10-16T09:02:34;4.68;;;2.83;;
8100;SDS011;4093;53.470;9.832;2022-10-16T09:08:00;4.22;;;2.80;;
8100;SDS011;4093;53.470;9.832;2022-10-16T09:10:41;6.20;;;3.40;;
8100;SDS011;4093;53.470;9.832;2022-10-16T09:13:20;5.13;;;2.60;;
8100;SDS011;4093;53.470;9.832;2022-10-16T09:15:55;3.38;;;2.55;;
8100;SDS011;4093;53.470;9.832;2022-10-16T09:18:29;4.00;;;2.65;;
8100;SDS011;4093;53.470;9.832;2022-10-16T09:21:06;3.85;;;2.47;;
8100;SDS011;4093;53.470;9.832;2022-10-16T09:23:39;3.87;;;2.47;;
8100;SDS011;4093;53.470;9.832;2022-10-16T09:26:09;2.58;;;2.35;;
8100;SDS011;4093;53.470;9.832;2022-10-16T09:28:39;3.73;;;2.57;;
8100;SDS011;4093;53.470;9.832;2022-10-16T09:31:12;3.23;;;2.10;;
8100;SDS011;4093;53.470;9.832;2022-10-16T09:33:42;2.40;;;2.08;;
8100;SDS011;4093;53.470;9.832;2022-10-16T09:36:12;3.23;;;2.67;;
8100;SDS011;4093;53.470;9.832;2022-10-16T09:38:40;4.90;;;2.35;;
8100;SDS011;4093;53.470;9.832;2022-10-16T09:41:13;4.97;;;2.58;;
8100;SDS011;4093;53.470;9.832;2022-10-16T09:43:48;4.28;;;2.78;;
8100;SDS011;4093;53.470;9.832;2022-10-16T09:46:24;6.43;;;2.70;;
8100;SDS011;4093;53.470;9.832;2022-10-16T09:48:54;4.87;;;2.40;;
8100;SDS011;4093;53.470;9.832;2022-10-16T09:51:25;3.57;;;2.80;;
8100;SDS011;4093;53.470;9.832;2022-10-16T09:53:55;5.23;;;2.10;;
8100;SDS011;4093;53.470;9.832;2022-10-16T09:56:25;4.30;;;2.37;;
8100;SDS011;4093;53.470;9.832;2022-10-16T09:58:55;4.43;;;2.30;;
8100;SDS011;4093;53.470;9.832;2022-10-16T10:01:29;5.33;;;2.43;;
8100;SDS011;4093;53.470;9.832;2022-10-16T10:04:02;4.30;;;2.17;;
8100;SDS011;4093;53.470;9.832;2022-10-16T10:06:32;6.50;;;2.70;;
8100;SDS011;4093;53.470;9.832;2022-10-16T10:09:14;6.38;;;2.78;;
8100;SDS011;4093;53.470;9.832;2022-10-16T10:11:47;4.47;;;2.20;;
8100;SDS011;4093;53.470;9.832;2022-10-16T10:14:21;4.20;;;2.00;;
8100;SDS011;4093;53.470;9.832;2022-10-16T10:17:01;3.83;;;2.10;;
8100;SDS011;4093;53.470;9.832;2022-10-16T10:19:40;3.40;;;2.00;;
8100;SDS011;4093;53.470;9.832;2022-10-16T10:22:25;2.55;;;1.95;;
8100;SDS011;4093;53.470;9.832;2022-10-16T10:24:57;3.17;;;1.77;;
8100;SDS011;4093;53.470;9.832;2022-10-16T10:27:45;6.07;;;2.08;;
8100;SDS011;4093;53.470;9.832;2022-10-16T10:30:20;2.42;;;1.90;;
8100;SDS011;4093;53.470;9.832;2022-10-16T10:32:55;2.28;;;1.85;;
8100;SDS011;4093;53.470;9.832;2022-10-16T10:35:39;2.97;;;1.88;;
8100;SDS011;4093;53.470;9.832;2022-10-16T10:38:16;2.88;;;1.80;;
8100;SDS011;4093;53.470;9.832;2022-10-16T10:40:55;3.92;;;2.38;;
8100;SDS011;4093;53.470;9.832;2022-10-16T10:43:38;2.58;;;1.58;;
8100;SDS011;4093;53.470;9.832;2022-10-16T10:46:17;4.65;;;1.95;;
8100;SDS011;4093;53.470;9.832;2022-10-16T10:48:54;5.43;;;1.95;;
8100;SDS011;4093;53.470;9.832;2022-10-16T10:51:39;3.08;;;1.80;;
8100;SDS011;4093;53.470;9.832;2022-10-16T10:54:19;5.85;;;1.63;;
8100;SDS011;4093;53.470;9.832;2022-10-16T10:56:56;5.53;;;1.90;;
8100;SDS011;4093;53.470;9.832;2022-10-16T10:59:32;2.40;;;1.63;;
8100;SDS011;4093;53.470;9.832;2022-10-16T11:02:19;5.35;;;1.75;;
8100;SDS011;4093;53.470;9.832;2022-10-16T11:07:57;4.35;;;1.52;;
8100;SDS011;4093;53.470;9.832;2022-10-16T11:10:28;2.58;;;1.65;;
8100;SDS011;4093;53.470;9.832;2022-10-16T11:13:04;5.32;;;1.70;;
8100;SDS011;4093;53.470;9.832;2022-10-16T11:15:38;3.05;;;1.30;;
8100;SDS011;4093;53.470;9.832;2022-10-16T11:18:11;2.65;;;1.63;;
8100;SDS011;4093;53.470;9.832;2022-10-16T11:20:47;3.20;;;1.63;;
8100;SDS011;4093;53.470;9.832;2022-10-16T11:23:22;3.97;;;1.80;;
8100;SDS011;4093;53.470;9.832;2022-10-16T11:25:54;3.28;;;1.80;;
8100;SDS011;4093;53.470;9.832;2022-10-16T11:28:25;5.35;;;1.60;;
8100;SDS011;4093;53.470;9.832;2022-10-16T11:31:00;4.00;;;1.80;;
8100;SDS011;4093;53.470;9.832;2022-10-16T11:33:34;4.13;;;1.95;;
8100;SDS011;4093;53.470;9.832;2022-10-16T11:36:07;3.75;;;1.67;;
8100;SDS011;4093;53.470;9.832;2022-10-16T11:38:43;4.55;;;1.65;;
8100;SDS011;4093;53.470;9.832;2022-10-16T11:41:22;5.15;;;1.40;;
8100;SDS011;4093;53.470;9.832;2022-10-16T11:46:43;5.55;;;1.85;;
8100;SDS011;4093;53.470;9.832;2022-10-16T11:49:38;3.25;;;1.52;;
8100;SDS011;4093;53.470;9.832;2022-10-16T11:52:08;2.65;;;1.77;;
8100;SDS011;4093;53.470;9.832;2022-10-16T11:54:47;6.82;;;2.25;;
8100;SDS011;4093;53.470;9.832;2022-10-16T11:57:20;3.80;;;1.60;;
8100;SDS011;4093;53.470;9.832;2022-10-16T11:59:52;3.50;;;1.70;;
8100;SDS011;4093;53.470;9.832;2022-10-16T12:05:23;3.90;;;1.73;;
8100;SDS011;4093;53.470;9.832;2022-10-16T12:08:00;4.60;;;1.88;;
8100;SDS011;4093;53.470;9.832;2022-10-16T12:10:34;3.83;;;1.58;;
8100;SDS011;4093;53.470;9.832;2022-10-16T12:13:04;1.98;;;1.42;;
8100;SDS011;4093;53.470;9.832;2022-10-16T12:15:33;5.18;;;1.90;;
8100;SDS011;4093;53.470;9.832;2022-10-16T12:18:21;3.17;;;1.80;;
8100;SDS011;4093;53.470;9.832;2022-10-16T12:20:54;5.57;;;2.10;;
8100;SDS011;4093;53.470;9.832;2022-10-16T12:23:25;2.67;;;1.65;;
8100;SDS011;4093;53.470;9.832;2022-10-16T12:25:55;6.00;;;1.98;;
8100;SDS011;4093;53.470;9.832;2022-10-16T12:28:26;5.47;;;1.90;;
8100;SDS011;4093;53.470;9.832;2022-10-16T12:30:56;5.25;;;1.70;;
8100;SDS011;4093;53.470;9.832;2022-10-16T12:33:29;5.00;;;1.95;;
8100;SDS011;4093;53.470;9.832;2022-10-16T12:36:00;3.78;;;2.00;;
8100;SDS011;4093;53.470;9.832;2022-10-16T12:38:31;4.30;;;1.70;;
8100;SDS011;4093;53.470;9.832;2022-10-16T12:41:07;2.83;;;1.75;;
8100;SDS011;4093;53.470;9.832;2022-10-16T12:43:38;5.22;;;1.85;;
8100;SDS011;4093;53.470;9.832;2022-10-16T12:46:23;5.25;;;2.33;;
8100;SDS011;4093;53.470;9.832;2022-10-16T12:49:06;7.70;;;2.67;;
8100;SDS011;4093;53.470;9.832;2022-10-16T12:51:47;3.92;;;1.83;;
8100;SDS011;4093;53.470;9.832;2022-10-16T12:54:15;5.07;;;2.15;;
8100;SDS011;4093;53.470;9.832;2022-10-16T12:56:49;3.40;;;2.00;;
8100;SDS011;4093;53.470;9.832;2022-10-16T12:59:29;4.38;;;1.73;;
8100;SDS011;4093;53.470;9.832;2022-10-16T13:02:09;5.68;;;2.17;;
8100;SDS011;4093;53.470;9.832;2022-10-16T13:05:08;2.53;;;1.83;;
8100;SDS011;4093;53.470;9.832;2022-10-16T13:07:49;4.57;;;1.85;;
8100;SDS011;4093;53.470;9.832;2022-10-16T13:10:26;4.43;;;1.83;;
8100;SDS011;4093;53.470;9.832;2022-10-16T13:13:07;3.97;;;1.70;;
8100;SDS011;4093;53.470;9.832;2022-10-16T13:15:47;4.82;;;1.92;;
8100;SDS011;4093;53.470;9.832;2022-10-16T13:18:26;2.53;;;1.48;;
8100;SDS011;4093;53.470;9.832;2022-10-16T13:21:04;8.45;;;2.40;;
8100;SDS011;4093;53.470;9.832;2022-10-16T13:23:47;4.68;;;2.28;;
8100;SDS011;4093;53.470;9.832;2022-10-16T13:26:27;8.18;;;1.60;;
8100;SDS011;4093;53.470;9.832;2022-10-16T13:29:03;4.60;;;1.80;;
8100;SDS011;4093;53.470;9.832;2022-10-16T13:31:31;6.10;;;2.15;;
8100;SDS011;4093;53.470;9.832;2022-10-16T13:34:00;6.13;;;2.10;;
8100;SDS011;4093;53.470;9.832;2022-10-16T13:36:29;4.32;;;2.13;;
8100;SDS011;4093;53.470;9.832;2022-10-16T13:39:07;3.50;;;1.70;;
8100;SDS011;4093;53.470;9.832;2022-10-16T13:41:39;3.53;;;1.70;;
8100;SDS011;4093;53.470;9.832;2022-10-16T13:44:12;8.05;;;2.00;;
8100;SDS011;4093;53.470;9.832;2022-10-16T13:46:42;4.85;;;2.00;;
8100;SDS011;4093;53.470;9.832;2022-10-16T13:49:12;5.75;;;2.00;;
8100;SDS011;4093;53.470;9.832;2022-10-16T13:51:47;2.95;;;1.83;;
8100;SDS011;4093;53.470;9.832;2022-10-16T13:54:22;6.05;;;1.88;;
8100;SDS011;4093;53.470;9.832;2022-10-16T13:56:50;4.95;;;1.77;;
8100;SDS011;4093;53.470;9.832;2022-10-16T13:59:36;5.22;;;1.58;;
8100;SDS011;4093;53.470;9.832;2022-10-16T14:02:06;3.20;;;2.00;;
8100;SDS011;4093;53.470;9.832;2022-10-16T14:04:45;2.85;;;1.90;;
8100;SDS011;4093;53.470;9.832;2022-10-16T14:07:16;3.28;;;1.67;;
8100;SDS011;4093;53.470;9.832;2022-10-16T14:09:48;3.75;;;1.83;;
8100;SDS011;4093;53.470;9.832;2022-10-16T14:12:18;4.20;;;1.90;;
8100;SDS011;4093;53.470;9.832;2022-10-16T14:14:52;5.88;;;2.13;;
8100;SDS011;4093;53.470;9.832;2022-10-16T14:17:23;5.05;;;2.17;;
8100;SDS011;4093;53.470;9.832;2022-10-16T14:19:53;5.78;;;2.33;;
8100;SDS011;4093;53.470;9.832;2022-10-16T14:22:29;4.60;;;2.35;;
8100;SDS011;4093;53.470;9.832;2022-10-16T14:24:59;4.32;;;2.00;;
8100;SDS011;4093;53.470;9.832;2022-10-16T14:27:29;3.83;;;2.10;;
8100;SDS011;4093;53.470;9.832;2022-10-16T14:30:08;5.82;;;1.88;;
8100;SDS011;4093;53.470;9.832;2022-10-16T14:32:41;2.85;;;1.90;;
8100;SDS011;4093;53.470;9.832;2022-10-16T14:35:23;6.45;;;2.17;;
8100;SDS011;4093;53.470;9.832;2022-10-16T14:37:53;3.97;;;2.13;;
8100;SDS011;4093;53.470;9.832;2022-10-16T14:40:22;5.05;;;1.98;;
8100;SDS011;4093;53.470;9.832;2022-10-16T14:42:51;7.45;;;2.05;;
8100;SDS011;4093;53.470;9.832;2022-10-16T14:45:22;5.35;;;2.30;;
8100;SDS011;4093;53.470;9.832;2022-10-16T14:47:54;5.55;;;2.45;;
8100;SDS011;4093;53.470;9.832;2022-10-16T14:50:24;6.82;;;2.33;;
8100;SDS011;4093;53.470;9.832;2022-10-16T14:52:52;5.10;;;2.00;;
8100;SDS011;4093;53.470;9.832;2022-10-16T14:55:20;6.03;;;2.10;;
8100;SDS011;4093;53.470;9.832;2022-10-16T14:57:49;9.75;;;5.25;;
8100;SDS011;4093;53.470;9.832;2022-10-16T15:00:23;6.15;;;2.88;;
8100;SDS011;4093;53.470;9.832;2022-10-16T15:02:51;5.85;;;2.50;;
8100;SDS011;4093;53.470;9.832;2022-10-16T15:05:20;3.85;;;2.00;;
8100;SDS011;4093;53.470;9.832;2022-10-16T15:07:50;3.80;;;1.75;;
8100;SDS011;4093;53.470;9.832;2022-10-16T15:10:21;4.30;;;1.70;;
8100;SDS011;4093;53.470;9.832;2022-10-16T15:12:50;6.43;;;2.03;;
8100;SDS011;4093;53.470;9.832;2022-10-16T15:15:25;3.30;;;1.95;;
8100;SDS011;4093;53.470;9.832;2022-10-16T15:17:58;6.15;;;2.38;;
8100;SDS011;4093;53.470;9.832;2022-10-16T15:20:27;4.10;;;1.70;;
8100;SDS011;4093;53.470;9.832;2022-10-16T15:22:57;4.97;;;2.10;;
8100;SDS011;4093;53.470;9.832;2022-10-16T15:25:27;5.13;;;1.92;;
8100;SDS011;4093;53.470;9.832;2022-10-16T15:27:58;4.80;;;2.40;;
8100;SDS011;4093;53.470;9.832;2022-10-16T15:30:28;4.57;;;2.40;;
8100;SDS011;4093;53.470;9.832;2022-10-16T15:32:56;7.15;;;2.25;;
8100;SDS011;4093;53.470;9.832;2022-10-16T15:35:24;5.90;;;2.28;;
8100;SDS011;4093;53.470;9.832;2022-10-16T15:37:53;5.95;;;2.40;;
8100;SDS011;4093;53.470;9.832;2022-10-16T15:40:22;6.45;;;2.78;;
8100;SDS011;4093;53.470;9.832;2022-10-16T15:42:50;7.28;;;2.60;;
8100;SDS011;4093;53.470;9.832;2022-10-16T15:45:18;5.63;;;2.53;;
8100;SDS011;4093;53.470;9.832;2022-10-16T15:47:47;7.65;;;2.40;;
8100;SDS011;4093;53.470;9.832;2022-10-16T15:50:15;6.30;;;2.45;;
8100;SDS011;4093;53.470;9.832;2022-10-16T15:52:43;3.17;;;1.80;;
8100;SDS011;4093;53.470;9.832;2022-10-16T15:55:11;4.55;;;1.88;;